createdAt,value
2022-08-25T00:01:31.319Z,73.27
2022-08-25T00:04:00.301Z,73.80
2022-08-25T00:06:29.460Z,73.88
2022-08-25T00:08:59.588Z,74.07
2022-08-25T00:11:30.442Z,73.99
2022-08-25T00:14:00.978Z,74.38
2022-08-25T00:16:30.082Z,74.16
2022-08-25T00:19:00.050Z,74.29
2022-08-25T00:21:28.062Z,74.38
2022-08-25T00:23:55.007Z,74.36
2022-08-25T00:26:21.920Z,73.77
2022-08-25T00:28:48.680Z,73.63
2022-08-25T00:31:20.154Z,73.43
2022-08-25T00:33:48.901Z,73.13
2022-08-25T00:36:16.989Z,72.96
2022-08-25T00:38:46.442Z,72.68
2022-08-25T00:41:18.512Z,72.58
2022-08-25T00:43:51.998Z,72.32
2022-08-25T00:46:22.633Z,71.67
2022-08-25T00:48:58.088Z,71.48
2022-08-25T00:51:53.727Z,70.91
2022-08-25T00:54:29.022Z,70.77
2022-08-25T00:56:58.563Z,70.36
2022-08-25T00:59:26.502Z,70.46
2022-08-25T01:01:54.408Z,70.11
2022-08-25T01:04:21.456Z,70.17
2022-08-25T01:06:49.194Z,69.55
2022-08-25T01:09:15.874Z,69.89
2022-08-25T01:11:44.693Z,69.84
2022-08-25T01:14:14.847Z,69.53
2022-08-25T01:16:43.872Z,70.09
2022-08-25T01:19:15.492Z,69.73
2022-08-25T01:21:46.547Z,70.02
2022-08-25T01:24:31.382Z,69.98
2022-08-25T01:26:58.592Z,69.92
2022-08-25T01:29:25.659Z,69.72
2022-08-25T01:31:58.009Z,69.73
2022-08-25T01:34:31.729Z,69.47
2022-08-25T01:36:59.245Z,70.44
2022-08-25T01:39:27.819Z,70.29
2022-08-25T01:42:00.241Z,70.61
2022-08-25T01:44:26.910Z,70.15
2022-08-25T01:46:54.598Z,70.84
2022-08-25T01:49:21.263Z,70.15
2022-08-25T01:51:53.251Z,70.20
2022-08-25T01:54:19.975Z,70.40
2022-08-25T01:56:46.650Z,70.46
2022-08-25T01:59:16.659Z,70.71
2022-08-25T02:01:51.284Z,70.49
2022-08-25T02:04:26.924Z,70.21
2022-08-25T02:06:53.524Z,69.97
2022-08-25T02:09:20.143Z,70.16
2022-08-25T02:11:47.941Z,70.81
2022-08-25T02:14:15.607Z,70.65
2022-08-25T02:16:46.292Z,70.87
2022-08-25T02:19:13.035Z,70.59
2022-08-25T02:21:39.856Z,70.54
2022-08-25T02:24:07.575Z,69.96
2022-08-25T02:26:34.249Z,70.17
2022-08-25T02:29:01.290Z,70.38
2022-08-25T02:31:28.710Z,69.76
2022-08-25T02:33:57.145Z,69.69
2022-08-25T02:36:23.955Z,70.80
2022-08-25T02:38:50.813Z,69.50
2022-08-25T02:41:20.267Z,69.23
2022-08-25T02:43:48.643Z,69.05
2022-08-25T02:46:17.760Z,70.68
2022-08-25T02:48:45.227Z,68.84
2022-08-25T02:51:12.452Z,67.81
2022-08-25T02:53:40.515Z,69.18
2022-08-25T02:56:09.735Z,68.52
2022-08-25T02:58:37.676Z,67.64
2022-08-25T03:01:05.079Z,66.92
2022-08-25T03:03:34.298Z,67.71
2022-08-25T03:06:04.437Z,68.07
2022-08-25T03:08:31.089Z,66.81
2022-08-25T03:10:57.733Z,66.99
2022-08-25T03:13:24.387Z,67.61
2022-08-25T03:15:51.005Z,66.83
2022-08-25T03:18:18.353Z,67.10
2022-08-25T03:20:45.992Z,66.74
2022-08-25T03:23:12.686Z,66.26
2022-08-25T03:26:00.752Z,66.41
2022-08-25T03:28:32.265Z,66.74
2022-08-25T03:31:00.414Z,66.28
2022-08-25T03:33:28.891Z,65.72
2022-08-25T03:35:55.881Z,66.05
2022-08-25T03:38:25.364Z,66.36
2022-08-25T03:40:52.575Z,67.08
2022-08-25T03:43:20.653Z,66.78
2022-08-25T03:45:47.928Z,66.71
2022-08-25T03:48:16.155Z,65.94
2022-08-25T03:50:51.520Z,66.54
2022-08-25T03:53:20.398Z,65.84
2022-08-25T03:55:48.129Z,67.84
2022-08-25T03:58:15.377Z,66.10
2022-08-25T04:00:42.352Z,66.68
2022-08-25T04:03:09.155Z,65.87
2022-08-25T04:05:35.911Z,66.70
2022-08-25T04:08:03.436Z,66.79
2022-08-25T04:10:30.361Z,65.99
2022-08-25T04:12:57.056Z,65.84
2022-08-25T04:15:27.103Z,67.03
2022-08-25T04:17:59.003Z,66.03
2022-08-25T04:20:26.493Z,66.10
2022-08-25T04:22:53.353Z,66.58
2022-08-25T04:25:20.158Z,65.55
2022-08-25T04:27:46.924Z,66.17
2022-08-25T04:30:14.164Z,67.64
2022-08-25T04:32:40.965Z,65.55
2022-08-25T04:35:08.752Z,66.00
2022-08-25T04:37:35.280Z,66.34
2022-08-25T04:40:02.503Z,66.08
2022-08-25T04:42:29.197Z,65.17
2022-08-25T04:44:56.021Z,66.43
2022-08-25T04:47:23.160Z,65.48
2022-08-25T04:49:49.992Z,64.97
2022-08-25T04:52:16.721Z,65.40
2022-08-25T04:54:44.057Z,65.34
2022-08-25T04:57:11.160Z,65.08
2022-08-25T04:59:38.105Z,65.02
2022-08-25T05:02:06.676Z,65.14
2022-08-25T05:04:35.619Z,65.17
2022-08-25T05:07:03.382Z,64.87
2022-08-25T05:09:32.271Z,65.13
2022-08-25T05:12:03.115Z,64.87
2022-08-25T05:14:30.655Z,64.68
2022-08-25T05:16:58.009Z,64.84
2022-08-25T05:19:26.419Z,64.40
2022-08-25T05:21:53.774Z,64.17
2022-08-25T05:24:22.073Z,63.97
2022-08-25T05:26:49.249Z,63.96
2022-08-25T05:29:16.012Z,64.25
2022-08-25T05:31:48.230Z,63.89
2022-08-25T05:34:18.356Z,63.32
2022-08-25T05:36:45.092Z,63.54
2022-08-25T05:39:11.869Z,63.27
2022-08-25T05:41:38.638Z,62.92
2022-08-25T05:44:05.341Z,62.91
2022-08-25T05:46:32.106Z,62.48
2022-08-25T05:48:59.079Z,62.17
2022-08-25T05:51:26.696Z,61.17
2022-08-25T05:53:53.678Z,61.11
2022-08-25T05:56:20.452Z,60.77
2022-08-25T05:58:47.810Z,60.13
2022-08-25T06:01:59.365Z,60.37
2022-08-25T06:04:26.117Z,59.33
2022-08-25T06:06:54.843Z,58.87
2022-08-25T06:09:22.456Z,59.60
2022-08-25T06:11:54.056Z,58.97
2022-08-25T06:14:21.777Z,58.44
2022-08-25T06:16:51.476Z,58.27
2022-08-25T06:19:18.908Z,57.90
2022-08-25T06:21:45.531Z,57.14
2022-08-25T06:24:15.349Z,56.88
2022-08-25T06:26:43.987Z,56.46
2022-08-25T06:29:10.655Z,56.42
2022-08-25T06:31:37.367Z,56.54
2022-08-25T06:34:04.016Z,56.28
2022-08-25T06:36:30.645Z,56.87
2022-08-25T06:38:57.415Z,56.18
2022-08-25T06:41:25.627Z,55.00
2022-08-25T06:44:05.671Z,54.77
2022-08-25T06:46:35.628Z,54.95
2022-08-25T06:49:06.894Z,55.50
2022-08-25T06:51:36.053Z,54.37
2022-08-25T06:54:04.895Z,54.14
2022-08-25T06:56:31.546Z,54.09
2022-08-25T06:58:58.405Z,54.04
2022-08-25T07:01:27.003Z,53.64
2022-08-25T07:03:59.791Z,53.54
2022-08-25T07:06:28.478Z,53.85
2022-08-25T07:08:56.188Z,53.71
2022-08-25T07:11:22.723Z,53.16
2022-08-25T07:13:50.529Z,52.70
2022-08-25T07:16:18.772Z,52.56
2022-08-25T07:18:46.758Z,52.63
2022-08-25T07:21:14.324Z,51.98
2022-08-25T07:23:41.959Z,50.65
2022-08-25T07:26:15.678Z,50.58
2022-08-25T07:28:53.769Z,50.36
2022-08-25T07:31:21.381Z,50.35
2022-08-25T07:34:12.454Z,49.82
2022-08-25T07:36:39.912Z,48.99
2022-08-25T07:39:07.113Z,48.09
2022-08-25T07:41:37.868Z,47.31
2022-08-25T07:44:05.755Z,46.79
2022-08-25T07:46:32.557Z,47.11
2022-08-25T07:49:00.425Z,46.75
2022-08-25T07:53:59.007Z,46.04
2022-08-25T07:56:28.013Z,45.98
2022-08-25T07:58:54.862Z,45.17
2022-08-25T08:01:24.328Z,45.00
2022-08-25T08:03:52.083Z,43.53
2022-08-25T08:06:23.987Z,44.18
2022-08-25T08:08:54.623Z,44.36
2022-08-25T08:11:30.969Z,43.88
2022-08-25T08:13:58.143Z,43.96
2022-08-25T08:16:28.214Z,43.50
2022-08-25T08:18:54.997Z,44.10
2022-08-25T08:21:25.260Z,43.24
2022-08-25T08:23:58.864Z,43.79
2022-08-25T08:26:48.294Z,43.63
2022-08-25T08:29:15.420Z,43.81
2022-08-25T08:31:48.493Z,43.44
2022-08-25T08:34:16.325Z,43.50
2022-08-25T08:36:43.275Z,42.87
2022-08-25T08:39:12.128Z,42.37
2022-08-25T08:42:16.908Z,43.06
2022-08-25T08:44:47.042Z,42.63
2022-08-25T08:47:31.651Z,41.90
2022-08-25T08:50:27.895Z,42.02
2022-08-25T08:53:27.732Z,40.94
2022-08-25T08:56:11.754Z,40.79
2022-08-25T08:58:56.925Z,41.73
2022-08-25T09:01:29.372Z,40.10
2022-08-25T09:04:25.306Z,40.60
2022-08-25T09:06:57.212Z,39.44
2022-08-25T09:09:29.222Z,38.77
2022-08-25T09:12:34.096Z,38.62
2022-08-25T09:15:55.650Z,38.76
2022-08-25T09:18:51.523Z,39.02
2022-08-25T09:21:34.044Z,38.06
2022-08-25T09:24:00.989Z,37.70
2022-08-25T09:26:50.001Z,38.02
2022-08-25T09:29:25.304Z,38.12
2022-08-25T09:31:58.041Z,37.07
2022-08-25T09:34:31.985Z,37.85
2022-08-25T09:37:00.105Z,36.64
2022-08-25T09:39:27.964Z,37.01
2022-08-25T09:42:00.453Z,36.97
2022-08-25T09:44:45.787Z,36.22
2022-08-25T09:47:15.477Z,35.89
2022-08-25T09:49:45.637Z,35.91
2022-08-25T09:52:21.207Z,34.27
2022-08-25T09:54:53.036Z,34.91
2022-08-25T09:57:46.136Z,34.49
2022-08-25T10:00:22.921Z,33.53
2022-08-25T10:03:22.767Z,33.84
2022-08-25T10:06:07.575Z,33.25
2022-08-25T10:08:51.572Z,32.53
2022-08-25T10:11:37.963Z,32.56
2022-08-25T10:14:16.724Z,32.20
2022-08-25T10:16:46.819Z,31.96
2022-08-25T10:19:25.135Z,31.33
2022-08-25T10:22:06.157Z,31.63
2022-08-25T10:24:35.002Z,31.52
2022-08-25T10:27:25.973Z,31.47
2022-08-25T10:30:46.063Z,31.11
2022-08-25T10:33:29.160Z,31.36
2022-08-25T10:36:13.774Z,30.81
2022-08-25T10:38:54.293Z,30.71
2022-08-25T10:41:24.056Z,29.66
2022-08-25T10:44:39.896Z,30.02
2022-08-25T10:47:34.880Z,30.74
2022-08-25T10:50:45.417Z,29.80
2022-08-25T10:53:37.288Z,29.03
2022-08-25T10:56:09.342Z,28.46
2022-08-25T10:58:45.146Z,28.66
2022-08-25T11:01:42.910Z,28.84
2022-08-25T11:04:26.042Z,29.08
2022-08-25T11:07:26.273Z,28.31
2022-08-25T11:09:59.003Z,28.84
2022-08-25T11:12:56.882Z,28.05
2022-08-25T11:15:37.506Z,28.28
2022-08-25T11:18:14.817Z,27.86
2022-08-25T11:20:57.202Z,27.49
2022-08-25T11:23:31.206Z,27.61
2022-08-25T11:26:03.210Z,26.81
2022-08-25T11:28:30.552Z,27.02
2022-08-25T11:31:00.821Z,27.18
2022-08-25T11:33:30.518Z,26.87
2022-08-25T11:35:59.332Z,27.05
2022-08-25T11:39:07.508Z,27.34
2022-08-25T11:42:00.224Z,27.57
2022-08-25T11:44:29.865Z,27.10
2022-08-25T11:47:00.264Z,27.04
2022-08-25T11:49:36.292Z,27.48
2022-08-25T11:52:28.905Z,27.53
2022-08-25T11:55:05.744Z,27.15
2022-08-25T11:57:32.820Z,27.39
2022-08-25T12:00:06.501Z,27.11
2022-08-25T12:02:45.132Z,26.90
2022-08-25T12:05:32.474Z,27.19
2022-08-25T12:08:24.682Z,26.97
2022-08-25T12:10:56.993Z,27.07
2022-08-25T12:13:46.179Z,26.84
2022-08-25T12:16:50.111Z,26.56
2022-08-25T12:19:36.070Z,26.16
2022-08-25T12:22:03.663Z,25.96
2022-08-25T12:24:48.321Z,25.72
2022-08-25T12:27:24.706Z,26.12
2022-08-25T12:30:05.076Z,26.41
2022-08-25T12:32:47.672Z,26.16
2022-08-25T12:35:52.701Z,25.61
2022-08-25T12:38:54.614Z,25.84
2022-08-25T12:41:31.085Z,25.97
2022-08-25T12:44:47.276Z,25.77
2022-08-25T12:47:32.387Z,25.88
2022-08-25T12:50:29.996Z,25.88
2022-08-25T12:53:07.659Z,25.48
2022-08-25T12:55:35.224Z,25.31
2022-08-25T12:58:04.704Z,25.31
2022-08-25T13:01:01.126Z,24.99
2022-08-25T13:03:47.176Z,25.25
2022-08-25T13:06:39.604Z,25.06
2022-08-25T13:09:49.520Z,25.16
2022-08-25T13:12:30.423Z,24.86
2022-08-25T13:14:58.947Z,24.81
2022-08-25T13:17:34.690Z,24.48
2022-08-25T13:20:15.331Z,24.66
2022-08-25T13:22:47.441Z,24.42
2022-08-25T13:25:30.117Z,24.40
2022-08-25T13:28:03.230Z,23.75
2022-08-25T13:30:36.514Z,23.94
2022-08-25T13:33:20.749Z,23.56
2022-08-25T13:36:11.478Z,23.93
2022-08-25T13:38:38.818Z,23.70
2022-08-25T13:41:09.314Z,23.82
2022-08-25T13:43:38.341Z,23.83
2022-08-25T13:46:05.909Z,23.54
2022-08-25T13:48:49.545Z,23.64
2022-08-25T13:51:23.006Z,24.00
2022-08-25T13:53:53.617Z,24.06
2022-08-25T13:56:28.728Z,23.83
2022-08-25T13:58:59.804Z,23.43
2022-08-25T14:01:49.696Z,23.83
2022-08-25T14:04:32.569Z,23.83
2022-08-25T14:07:08.556Z,23.32
2022-08-25T14:09:53.708Z,23.20
2022-08-25T14:12:44.955Z,22.31
2022-08-25T14:15:17.852Z,22.50
2022-08-25T14:17:48.933Z,22.17
2022-08-25T14:20:20.513Z,22.53
2022-08-25T14:22:48.326Z,21.69
2022-08-25T14:25:15.007Z,21.96
2022-08-25T14:28:03.557Z,21.72
2022-08-25T14:30:34.740Z,21.34
2022-08-25T14:33:03.989Z,21.54
2022-08-25T14:35:31.377Z,21.64
2022-08-25T14:37:58.318Z,21.52
2022-08-25T14:40:25.120Z,21.45
2022-08-25T14:42:51.854Z,21.31
2022-08-25T14:45:19.150Z,21.01
2022-08-25T14:47:49.812Z,22.13
2022-08-25T14:50:20.156Z,22.75
2022-08-25T14:52:48.345Z,22.17
2022-08-25T14:55:31.126Z,22.64
2022-08-25T14:57:59.798Z,24.21
2022-08-25T15:00:26.688Z,24.35
2022-08-25T15:02:55.116Z,23.72
2022-08-25T15:05:27.044Z,23.06
2022-08-25T15:08:14.501Z,23.18
2022-08-25T15:10:42.098Z,23.07
2022-08-25T15:13:10.732Z,22.86
2022-08-25T15:15:52.435Z,22.50
2022-08-25T15:18:21.568Z,22.50
2022-08-25T15:20:50.083Z,23.52
2022-08-25T15:23:18.613Z,24.09
2022-08-25T15:25:52.979Z,24.02
2022-08-25T15:28:22.298Z,24.70
2022-08-25T15:30:49.809Z,24.74
2022-08-25T15:33:17.516Z,24.97
2022-08-25T15:35:45.673Z,25.17
2022-08-25T15:38:13.008Z,25.80
2022-08-25T15:40:39.893Z,25.20
2022-08-25T15:43:06.894Z,25.89
2022-08-25T15:45:36.055Z,26.73
2022-08-25T15:48:04.179Z,27.90
2022-08-25T15:50:33.903Z,28.76
2022-08-25T15:53:00.513Z,28.68
2022-08-25T15:55:27.529Z,28.82
2022-08-25T15:57:55.521Z,28.55
2022-08-25T16:00:22.715Z,27.39
2022-08-25T16:02:50.203Z,26.44
2022-08-25T16:05:17.028Z,26.09
2022-08-25T16:07:46.117Z,25.82
2022-08-25T16:10:18.733Z,25.93
2022-08-25T16:12:45.450Z,25.51
2022-08-25T16:15:12.432Z,24.94
2022-08-25T16:17:40.536Z,25.01
2022-08-25T16:20:08.113Z,25.30
2022-08-25T16:22:40.485Z,25.64
2022-08-25T16:25:07.339Z,25.71
2022-08-25T16:27:37.802Z,26.41
2022-08-25T16:30:08.022Z,27.59
2022-08-25T16:32:35.640Z,30.41
2022-08-25T16:35:03.607Z,32.07
2022-08-25T16:37:30.298Z,32.55
2022-08-25T16:39:57.172Z,32.97
2022-08-25T16:42:24.276Z,32.98
2022-08-25T16:44:54.138Z,33.08
2022-08-25T16:47:25.270Z,33.40
2022-08-25T16:49:53.807Z,34.18
2022-08-25T16:52:40.732Z,35.44
2022-08-25T16:55:15.292Z,35.85
2022-08-25T16:57:49.447Z,35.14
2022-08-25T17:00:21.365Z,35.07
2022-08-25T17:02:49.056Z,35.23
2022-08-25T17:05:16.647Z,35.08
2022-08-25T17:08:05.029Z,35.15
2022-08-25T17:10:36.498Z,35.18
2022-08-25T17:13:03.295Z,35.50
2022-08-25T17:15:30.750Z,35.46
2022-08-25T17:17:57.585Z,36.19
2022-08-25T17:20:24.549Z,36.45
2022-08-25T17:22:54.649Z,36.59
2022-08-25T17:25:21.653Z,37.45
2022-08-25T17:27:48.272Z,38.96
2022-08-25T17:30:15.618Z,40.11
2022-08-25T17:32:43.459Z,41.06
2022-08-25T17:35:12.310Z,42.21
2022-08-25T17:37:41.028Z,43.68
2022-08-25T17:40:10.140Z,45.00
2022-08-25T17:42:37.790Z,46.44
2022-08-25T17:45:05.681Z,48.01
2022-08-25T17:47:32.627Z,48.31
2022-08-25T17:49:59.957Z,49.41
2022-08-25T17:52:27.296Z,49.32
2022-08-25T17:54:53.965Z,50.33
2022-08-25T17:57:21.288Z,51.17
2022-08-25T17:59:48.104Z,51.44
2022-08-25T18:02:14.914Z,53.13
2022-08-25T18:04:41.605Z,53.63
2022-08-25T18:07:08.329Z,54.04
2022-08-25T18:09:35.082Z,55.29
2022-08-25T18:12:01.829Z,55.77
2022-08-25T18:14:30.053Z,56.93
2022-08-25T18:16:57.014Z,57.32
2022-08-25T18:19:23.683Z,57.11
2022-08-25T18:21:50.381Z,58.06
2022-08-25T18:24:19.509Z,58.40
2022-08-25T18:26:47.045Z,59.09
2022-08-25T18:29:14.055Z,59.45
2022-08-25T18:31:45.836Z,59.62
2022-08-25T18:34:15.059Z,60.23
2022-08-25T18:36:41.723Z,60.02
2022-08-25T18:39:28.045Z,60.30
2022-08-25T18:41:58.320Z,60.67
2022-08-25T18:44:24.958Z,61.60
2022-08-25T18:46:51.739Z,62.23
2022-08-25T18:49:21.229Z,63.68
2022-08-25T18:51:53.471Z,64.04
2022-08-25T18:54:23.679Z,64.60
2022-08-25T18:56:52.594Z,64.98
2022-08-25T18:59:20.129Z,65.53
2022-08-25T19:01:51.045Z,65.89
2022-08-25T19:04:17.771Z,66.32
2022-08-25T19:06:44.732Z,66.99
2022-08-25T19:09:11.595Z,67.18
2022-08-25T19:11:38.374Z,66.97
2022-08-25T19:14:12.086Z,66.28
2022-08-25T19:16:41.139Z,67.60
2022-08-25T19:19:12.649Z,67.58
2022-08-25T19:21:42.517Z,68.54
2022-08-25T19:24:12.177Z,68.79
2022-08-25T19:26:39.484Z,69.85
2022-08-25T19:29:12.502Z,70.28
2022-08-25T19:31:41.188Z,70.84
2022-08-25T19:34:11.771Z,72.06
2022-08-25T19:36:38.919Z,72.18
2022-08-25T19:39:08.446Z,72.78
2022-08-25T19:41:35.258Z,72.96
2022-08-25T19:44:03.114Z,73.08
2022-08-25T19:46:35.640Z,73.79
2022-08-25T19:49:14.399Z,73.95
2022-08-25T19:51:50.673Z,74.03
2022-08-25T19:54:22.520Z,74.56
2022-08-25T19:56:54.546Z,75.23
2022-08-25T19:59:40.783Z,75.73
2022-08-25T20:02:16.463Z,75.92
2022-08-25T20:04:49.361Z,76.04
2022-08-25T20:07:16.890Z,76.15
2022-08-25T20:09:43.561Z,76.25
2022-08-25T20:12:12.233Z,76.12
2022-08-25T20:14:39.651Z,75.95
2022-08-25T20:17:23.927Z,76.07
2022-08-25T20:19:58.045Z,76.44
2022-08-25T20:22:27.351Z,76.19
2022-08-25T20:24:59.042Z,76.18
2022-08-25T20:27:47.619Z,76.36
2022-08-25T20:30:18.922Z,77.18
2022-08-25T20:32:45.933Z,76.86
2022-08-25T20:35:14.425Z,76.63
2022-08-25T20:37:43.962Z,76.49
2022-08-25T20:40:13.345Z,76.77
2022-08-25T20:42:40.638Z,77.40
2022-08-25T20:45:10.536Z,77.46
2022-08-25T20:47:37.283Z,77.38
2022-08-25T20:50:06.951Z,77.46
2022-08-25T20:52:34.625Z,77.71
2022-08-25T20:55:01.457Z,77.84
2022-08-25T20:57:28.167Z,78.02
2022-08-25T20:59:57.063Z,78.44
2022-08-25T21:02:25.064Z,78.39
2022-08-25T21:04:53.375Z,78.41
2022-08-25T21:07:23.807Z,78.54
2022-08-25T21:09:51.081Z,78.76
2022-08-25T21:12:18.381Z,78.88
2022-08-25T21:14:45.045Z,79.87
2022-08-25T21:17:12.900Z,79.81
2022-08-25T21:19:39.894Z,79.68
2022-08-25T21:22:07.568Z,79.85
2022-08-25T21:24:34.655Z,79.62
2022-08-25T21:27:03.254Z,79.99
2022-08-25T21:29:32.638Z,79.99
2022-08-25T21:31:59.843Z,80.31
2022-08-25T21:34:28.877Z,80.31
2022-08-25T21:37:00.061Z,80.19
2022-08-25T21:39:29.544Z,80.76
2022-08-25T21:42:00.114Z,81.02
2022-08-25T21:44:27.841Z,80.90
2022-08-25T21:46:54.887Z,81.73
2022-08-25T21:49:23.094Z,81.02
2022-08-25T21:51:59.131Z,81.15
2022-08-25T21:54:26.931Z,81.62
2022-08-25T21:57:01.522Z,81.88
2022-08-25T21:59:35.222Z,81.98
2022-08-25T22:02:05.596Z,82.20
2022-08-25T22:04:33.124Z,82.01
2022-08-25T22:07:00.559Z,81.68
2022-08-25T22:09:28.294Z,81.71
2022-08-25T22:11:56.470Z,81.34
2022-08-25T22:14:24.306Z,80.85
2022-08-25T22:16:54.179Z,80.91
2022-08-25T22:19:21.485Z,81.15
2022-08-25T22:21:51.022Z,81.58
2022-08-25T22:24:18.633Z,81.48
2022-08-25T22:26:47.726Z,81.17
2022-08-25T22:29:24.873Z,81.76
2022-08-25T22:31:59.794Z,81.75
2022-08-25T22:34:32.051Z,82.16
2022-08-25T22:37:03.593Z,81.98
2022-08-25T22:39:31.816Z,81.86
2022-08-25T22:41:58.803Z,81.67
2022-08-25T22:44:26.494Z,81.71
2022-08-25T22:46:53.710Z,81.44
2022-08-25T22:49:20.416Z,81.59
2022-08-25T22:51:47.658Z,81.32
2022-08-25T22:54:15.954Z,81.00
2022-08-25T22:56:43.331Z,81.24
2022-08-25T22:59:13.491Z,80.96
2022-08-25T23:01:42.806Z,81.32
2022-08-25T23:04:10.900Z,81.38
2022-08-25T23:06:38.345Z,81.13
2022-08-25T23:09:06.942Z,80.76
2022-08-25T23:11:33.944Z,81.00
2022-08-25T23:14:00.618Z,81.29
2022-08-25T23:16:28.402Z,80.93
2022-08-25T23:18:55.050Z,80.71
2022-08-25T23:21:41.265Z,80.83
2022-08-25T23:24:10.706Z,80.87
2022-08-25T23:26:41.983Z,80.52
2022-08-25T23:29:18.305Z,80.26
2022-08-25T23:31:47.009Z,79.87
2022-08-25T23:34:16.005Z,80.09
2022-08-25T23:36:43.881Z,80.06
2022-08-25T23:39:11.262Z,80.70
2022-08-25T23:41:38.448Z,80.85
2022-08-25T23:44:06.396Z,80.52
2022-08-25T23:46:36.393Z,80.17
2022-08-25T23:49:08.346Z,80.84
2022-08-25T23:51:37.957Z,81.40
2022-08-25T23:54:09.476Z,80.96
2022-08-25T23:56:44.834Z,80.75
2022-08-25T23:59:24.354Z,80.72
